Time;durP1;ratioP1;P1;durP2;ratioP2;P2;SDS_P1;SDS_P2;PMS_P1;PMS_P2;Temp;Humidity;BMP_temperature;BMP_pressure;BME280_temperature;BME280_humidity;BME280_pressure;Samples;Min_cycle;Max_cycle;Signal;HPM_P1;HPM_P2
2021/09/28 00:01:08;;;;;;;19.67;4.05;;;13.60;99.90;;;;;;5036974;28;25060;-68
2021/09/28 00:03:34;;;;;;;17.98;3.83;;;13.60;99.90;;;;;;5022841;28;25097;-69
2021/09/28 00:05:59;;;;;;;23.80;4.05;;;13.60;99.90;;;;;;5022174;28;25093;-68
2021/09/28 00:08:25;;;;;;;18.95;3.47;;;13.60;99.90;;;;;;5021339;28;25163;-68
2021/09/28 00:10:50;;;;;;;22.85;4.47;;;13.60;99.90;;;;;;5008984;28;25091;-68
2021/09/28 00:13:16;;;;;;;11.25;3.55;;;13.50;99.90;;;;;;5008239;28;25063;-67
2021/09/28 00:15:41;;;;;;;18.13;3.67;;;13.60;99.90;;;;;;5017646;28;25087;-67
2021/09/28 00:18:07;;;;;;;18.05;3.67;;;13.60;99.90;;;;;;5010062;28;25102;-67
2021/09/28 00:20:37;;;;;;;23.67;5.22;;;13.60;99.90;;;;;;5021343;28;25085;-68
2021/09/28 00:23:05;;;;;;;15.75;3.63;;;13.50;99.90;;;;;;5021344;28;25066;-68
2021/09/28 00:25:31;;;;;;;18.83;4.18;;;13.50;99.90;;;;;;5028093;28;25072;-67
2021/09/28 00:27:56;;;;;;;21.10;4.63;;;13.50;99.90;;;;;;5007869;28;25062;-68
2021/09/28 00:30:22;;;;;;;17.42;3.63;;;13.40;99.90;;;;;;5014399;28;25076;-68
2021/09/28 00:32:47;;;;;;;18.45;4.10;;;13.30;99.90;;;;;;5024168;28;25075;-68
2021/09/28 00:35:13;;;;;;;18.02;3.45;;;13.30;99.90;;;;;;5012653;28;25063;-68
2021/09/28 00:37:38;;;;;;;14.70;3.30;;;13.30;99.90;;;;;;5022968;28;25087;-67
2021/09/28 00:40:05;;;;;;;23.20;3.70;;;13.30;99.90;;;;;;5021561;28;25063;-68
2021/09/28 00:42:30;;;;;;;18.13;3.85;;;13.30;99.90;;;;;;5021528;28;25067;-67
2021/09/28 00:44:56;;;;;;;19.42;5.30;;;13.30;99.90;;;;;;5009861;28;25054;-67
2021/09/28 00:47:21;;;;;;;19.80;4.35;;;13.30;99.90;;;;;;4991693;28;25133;-67
2021/09/28 00:49:48;;;;;;;22.20;4.25;;;13.30;99.90;;;;;;5007173;28;25098;-69
2021/09/28 00:52:19;;;;;;;19.63;4.20;;;13.10;99.90;;;;;;5006459;28;25084;-68
2021/09/28 00:54:46;;;;;;;16.08;3.35;;;13.20;99.90;;;;;;5015206;28;25090;-68
2021/09/28 00:57:14;;;;;;;20.77;4.30;;;13.20;99.90;;;;;;5010953;28;25109;-67
2021/09/28 00:59:40;;;;;;;15.57;3.63;;;13.20;99.90;;;;;;5007418;28;25128;-68
2021/09/28 01:02:07;;;;;;;14.05;3.33;;;13.30;99.90;;;;;;5022225;28;25063;-69
2021/09/28 01:04:33;;;;;;;17.27;4.20;;;13.20;99.90;;;;;;5032588;28;25054;-68
2021/09/28 01:07:00;;;;;;;23.30;3.65;;;13.10;99.90;;;;;;5028601;28;25088;-69
2021/09/28 01:09:26;;;;;;;24.15;3.90;;;13.00;99.90;;;;;;5028870;28;25069;-68
2021/09/28 01:11:52;;;;;;;17.02;3.65;;;13.00;99.90;;;;;;5016389;28;25086;-68
2021/09/28 01:14:18;;;;;;;19.52;5.63;;;13.00;99.90;;;;;;5009402;28;25098;-69
2021/09/28 01:16:43;;;;;;;18.67;4.32;;;13.00;99.90;;;;;;5017106;28;25104;-69
2021/09/28 01:19:09;;;;;;;19.48;3.97;;;13.00;99.90;;;;;;5012158;28;25090;-68
2021/09/28 01:21:34;;;;;;;15.25;3.88;;;12.90;99.90;;;;;;5013582;28;25076;-67
2021/09/28 01:24:00;;;;;;;21.05;5.22;;;13.00;99.90;;;;;;5009505;28;25149;-68
2021/09/28 01:26:26;;;;;;;15.25;4.35;;;12.90;99.90;;;;;;5019154;28;25059;-67
2021/09/28 01:28:52;;;;;;;26.38;4.57;;;13.00;99.90;;;;;;5017393;28;25096;-67
2021/09/28 01:31:19;;;;;;;16.85;4.35;;;12.90;99.90;;;;;;5016928;28;25103;-69
2021/09/28 01:33:44;;;;;;;17.27;4.60;;;12.80;99.90;;;;;;5028327;28;25066;-69
2021/09/28 01:36:11;;;;;;;19.40;4.53;;;12.70;99.90;;;;;;5004119;28;25148;-69
2021/09/28 01:38:36;;;;;;;18.70;4.22;;;12.70;99.90;;;;;;5013593;28;25075;-68
2021/09/28 01:41:02;;;;;;;20.10;4.35;;;12.70;99.90;;;;;;5025427;28;25104;-68
2021/09/28 01:43:28;;;;;;;18.70;4.10;;;12.70;99.90;;;;;;5015311;28;25068;-67
2021/09/28 01:46:00;;;;;;;19.15;4.53;;;12.80;99.90;;;;;;5021584;28;25131;-67
2021/09/28 01:48:38;;;;;;;14.48;3.90;;;12.80;99.90;;;;;;5025607;28;25054;-68
2021/09/28 01:51:03;;;;;;;18.70;4.45;;;12.80;99.90;;;;;;5015955;28;25129;-67
2021/09/28 01:53:30;;;;;;;15.30;3.60;;;12.70;99.90;;;;;;5035487;28;25059;-67
2021/09/28 01:55:56;;;;;;;23.13;4.50;;;12.70;99.90;;;;;;5026587;28;25123;-67
2021/09/28 01:58:21;;;;;;;20.73;4.35;;;12.70;99.90;;;;;;5014832;28;25067;-67
2021/09/28 02:00:47;;;;;;;20.60;4.05;;;12.60;99.90;;;;;;5013036;28;25112;-67
2021/09/28 02:03:12;;;;;;;18.55;4.38;;;12.60;99.90;;;;;;5023231;28;25124;-67
2021/09/28 02:05:39;;;;;;;21.58;4.57;;;12.60;99.90;;;;;;5019133;28;25121;-67
2021/09/28 02:08:06;;;;;;;15.80;4.43;;;12.60;99.90;;;;;;5021483;28;25065;-68
2021/09/28 02:10:32;;;;;;;17.50;4.40;;;12.60;99.90;;;;;;5009545;28;25152;-67
2021/09/28 02:12:58;;;;;;;14.38;3.67;;;12.50;99.90;;;;;;5017856;28;25057;-68
2021/09/28 02:15:24;;;;;;;16.40;4.18;;;12.60;99.90;;;;;;5028314;28;25074;-67
2021/09/28 02:17:50;;;;;;;18.25;4.35;;;12.60;99.90;;;;;;4994883;28;25079;-69
2021/09/28 02:20:16;;;;;;;17.77;4.45;;;12.60;99.90;;;;;;5012159;28;25099;-67
2021/09/28 02:22:41;;;;;;;16.35;3.92;;;12.60;99.90;;;;;;5017276;28;25066;-67
2021/09/28 02:25:09;;;;;;;17.73;4.07;;;12.50;99.90;;;;;;5012268;28;25068;-68
2021/09/28 02:27:34;;;;;;;22.45;4.68;;;12.50;99.90;;;;;;5006969;28;25099;-68
2021/09/28 02:30:00;;;;;;;18.45;4.38;;;12.40;99.90;;;;;;5025405;28;25128;-67
2021/09/28 02:32:26;;;;;;;15.00;3.35;;;12.50;99.90;;;;;;5008824;28;25068;-68
2021/09/28 02:34:52;;;;;;;18.63;4.28;;;12.40;99.90;;;;;;5009622;28;25114;-67
2021/09/28 02:37:18;;;;;;;23.55;5.05;;;12.50;99.90;;;;;;5014180;28;25099;-68
2021/09/28 02:39:43;;;;;;;18.70;5.25;;;12.50;99.90;;;;;;5024262;28;25076;-68
2021/09/28 02:42:10;;;;;;;21.10;4.72;;;12.50;99.90;;;;;;5016637;28;25053;-69
2021/09/28 02:44:36;;;;;;;17.75;4.55;;;12.60;99.90;;;;;;5023672;28;25075;-67
2021/09/28 02:47:02;;;;;;;19.60;5.63;;;12.60;99.90;;;;;;5014222;28;25069;-67
2021/09/28 02:49:28;;;;;;;20.17;4.57;;;12.60;99.90;;;;;;5017392;28;25098;-68
2021/09/28 02:51:53;;;;;;;20.67;4.78;;;12.50;99.90;;;;;;5019770;28;25106;-68
2021/09/28 02:54:19;;;;;;;24.15;5.38;;;12.50;99.90;;;;;;5017371;28;25112;-68
2021/09/28 02:56:44;;;;;;;22.58;5.32;;;12.50;99.90;;;;;;5020630;28;25085;-68
2021/09/28 02:59:10;;;;;;;32.78;5.47;;;12.50;99.90;;;;;;5017215;28;25053;-68
2021/09/28 03:01:35;;;;;;;18.95;4.50;;;12.40;99.90;;;;;;5015847;28;25082;-66
2021/09/28 03:04:01;;;;;;;20.77;5.03;;;12.30;99.90;;;;;;5019280;28;25073;-67
2021/09/28 03:06:26;;;;;;;18.55;4.75;;;12.20;99.90;;;;;;5012483;28;25074;-68
2021/09/28 03:08:52;;;;;;;18.27;5.15;;;12.20;99.90;;;;;;5014770;28;25131;-67
2021/09/28 03:11:17;;;;;;;22.92;5.05;;;12.10;99.90;;;;;;5017613;28;25126;-67
2021/09/28 03:13:43;;;;;;;19.02;4.22;;;12.10;99.90;;;;;;5018034;28;25113;-67
2021/09/28 03:16:08;;;;;;;15.00;4.32;;;12.10;99.90;;;;;;4994943;28;25063;-70
2021/09/28 03:18:34;;;;;;;18.73;4.53;;;12.00;99.90;;;;;;4998168;28;25081;-67
2021/09/28 03:20:59;;;;;;;19.75;4.82;;;12.10;99.90;;;;;;5024604;28;25103;-68
2021/09/28 03:23:25;;;;;;;18.52;4.32;;;12.10;99.90;;;;;;5010424;28;25141;-69
2021/09/28 03:25:51;;;;;;;19.80;4.68;;;12.10;99.90;;;;;;5008169;28;25064;-69
2021/09/28 03:28:17;;;;;;;17.90;4.82;;;12.00;99.90;;;;;;5021675;28;25061;-67
2021/09/28 03:30:43;;;;;;;24.52;5.28;;;12.10;99.90;;;;;;5013340;28;25081;-68
2021/09/28 03:33:08;;;;;;;19.33;4.72;;;12.10;99.90;;;;;;5009315;28;25073;-67
2021/09/28 03:35:34;;;;;;;22.77;4.78;;;12.10;99.90;;;;;;5016281;28;25114;-67
2021/09/28 03:38:00;;;;;;;26.73;5.45;;;12.00;99.90;;;;;;5021309;28;25091;-69
2021/09/28 03:40:29;;;;;;;22.77;4.80;;;12.00;99.90;;;;;;5023285;28;25062;-68
2021/09/28 03:42:58;;;;;;;22.15;5.45;;;12.00;99.90;;;;;;5013830;28;25069;-69
2021/09/28 03:45:24;;;;;;;20.55;4.75;;;12.00;99.90;;;;;;5013464;28;25164;-68
2021/09/28 03:47:49;;;;;;;16.58;4.15;;;11.90;99.90;;;;;;5007340;28;25099;-68
2021/09/28 03:50:15;;;;;;;20.38;4.38;;;11.90;99.90;;;;;;5008075;28;25061;-69
2021/09/28 03:52:41;;;;;;;27.80;5.32;;;11.80;99.90;;;;;;5013142;28;25075;-67
2021/09/28 03:55:07;;;;;;;26.65;5.30;;;11.90;99.90;;;;;;5013906;28;25131;-67
2021/09/28 03:57:32;;;;;;;11.13;4.10;;;11.90;99.90;;;;;;5014529;28;25059;-69
2021/09/28 04:00:00;;;;;;;21.52;5.28;;;11.90;99.90;;;;;;5023159;28;25110;-69
2021/09/28 04:02:26;;;;;;;24.30;6.43;;;11.90;99.90;;;;;;5014587;28;25115;-69
2021/09/28 04:04:52;;;;;;;24.02;5.63;;;11.90;99.90;;;;;;5010449;28;25161;-69
2021/09/28 04:07:17;;;;;;;18.17;4.97;;;11.90;99.90;;;;;;5013911;28;25079;-69
2021/09/28 04:09:43;;;;;;;22.67;6.03;;;11.90;99.90;;;;;;5010494;28;25098;-69
2021/09/28 04:12:08;;;;;;;18.33;4.95;;;11.90;99.90;;;;;;4999212;28;25057;-69
2021/09/28 04:14:35;;;;;;;22.23;4.68;;;11.90;99.90;;;;;;5018989;28;25083;-67
2021/09/28 04:17:00;;;;;;;27.05;4.95;;;11.90;99.90;;;;;;5013191;28;25064;-68
2021/09/28 04:19:26;;;;;;;23.85;5.97;;;11.90;99.90;;;;;;5020207;28;25058;-67
2021/09/28 04:21:52;;;;;;;20.00;4.88;;;11.90;99.90;;;;;;5019148;28;25080;-68
2021/09/28 04:24:17;;;;;;;14.70;4.15;;;11.90;99.90;;;;;;5015946;28;25071;-67
2021/09/28 04:26:43;;;;;;;17.50;5.05;;;11.90;99.90;;;;;;5021003;28;25121;-68
2021/09/28 04:29:09;;;;;;;22.08;5.18;;;12.00;99.90;;;;;;5019019;28;25123;-70
2021/09/28 04:31:34;;;;;;;14.45;4.40;;;11.90;99.90;;;;;;4993995;28;25057;-69
2021/09/28 04:34:00;;;;;;;19.45;5.47;;;11.90;99.90;;;;;;5037421;22;25047;-60
2021/09/28 04:36:28;;;;;;;27.60;5.68;;;11.90;99.90;;;;;;5047070;28;25054;-59
2021/09/28 04:38:54;;;;;;;19.23;4.88;;;11.90;99.90;;;;;;5064858;28;25082;-60
2021/09/28 04:41:19;;;;;;;24.63;6.25;;;11.90;99.90;;;;;;5062965;28;25149;-59
2021/09/28 04:43:45;;;;;;;21.70;5.50;;;11.80;99.90;;;;;;5066105;28;25105;-59
2021/09/28 04:46:11;;;;;;;19.70;5.32;;;11.80;99.90;;;;;;5064775;28;25048;-59
2021/09/28 04:48:36;;;;;;;21.33;5.43;;;11.80;99.90;;;;;;5062438;28;25142;-60
2021/09/28 04:51:02;;;;;;;19.63;5.10;;;11.80;99.90;;;;;;5046033;28;25070;-59
2021/09/28 04:53:27;;;;;;;20.95;5.47;;;11.80;99.90;;;;;;5063703;28;25055;-61
2021/09/28 04:55:55;;;;;;;16.27;4.93;;;11.80;99.90;;;;;;5058729;28;25119;-60
2021/09/28 04:58:25;;;;;;;20.75;4.93;;;11.80;99.90;;;;;;5056898;28;25060;-60
2021/09/28 05:00:51;;;;;;;18.30;4.35;;;11.90;99.90;;;;;;5045349;28;25074;-60
2021/09/28 05:03:17;;;;;;;18.98;5.25;;;11.80;99.90;;;;;;5053249;28;25057;-59
2021/09/28 05:05:43;;;;;;;25.10;5.20;;;11.80;99.90;;;;;;5060709;28;25069;-60
2021/09/28 05:08:09;;;;;;;21.08;4.68;;;11.80;99.90;;;;;;5058047;28;25074;-59
2021/09/28 05:10:34;;;;;;;17.65;4.80;;;11.80;99.90;;;;;;5063317;28;25048;-59
2021/09/28 05:13:00;;;;;;;17.77;4.88;;;11.80;99.90;;;;;;5062461;28;25077;-60
2021/09/28 05:15:26;;;;;;;17.83;5.28;;;11.70;99.90;;;;;;5066772;28;25060;-60
2021/09/28 05:17:51;;;;;;;13.57;4.40;;;11.70;99.90;;;;;;5064679;28;25073;-58
2021/09/28 05:20:17;;;;;;;15.98;5.25;;;11.60;99.90;;;;;;5067329;28;25114;-60
2021/09/28 05:22:43;;;;;;;21.15;4.95;;;11.70;99.90;;;;;;5066690;28;25114;-61
2021/09/28 05:25:09;;;;;;;20.48;4.78;;;11.60;99.90;;;;;;5061677;28;25062;-60
2021/09/28 05:27:34;;;;;;;15.73;4.60;;;11.60;99.90;;;;;;5062512;28;25049;-60
2021/09/28 05:30:00;;;;;;;15.40;4.80;;;11.60;99.90;;;;;;5062045;28;25069;-59
2021/09/28 05:32:25;;;;;;;14.23;4.63;;;11.60;99.90;;;;;;5062726;28;25100;-60
2021/09/28 05:34:51;;;;;;;14.70;4.70;;;11.60;99.90;;;;;;5064959;28;25075;-60
2021/09/28 05:37:16;;;;;;;16.33;4.45;;;11.60;99.90;;;;;;5065706;28;25064;-59
2021/09/28 05:39:42;;;;;;;19.73;5.07;;;11.50;99.90;;;;;;5068646;28;25066;-60
2021/09/28 05:42:08;;;;;;;17.23;5.03;;;11.40;99.90;;;;;;5061683;28;25089;-60
2021/09/28 05:44:33;;;;;;;15.75;4.90;;;11.40;99.90;;;;;;5068212;28;25093;-59
2021/09/28 05:46:59;;;;;;;16.75;5.35;;;11.40;99.90;;;;;;5063427;28;25088;-60
2021/09/28 05:49:25;;;;;;;21.60;5.07;;;11.40;99.90;;;;;;5060721;28;25145;-60
2021/09/28 05:51:54;;;;;;;15.10;4.13;;;11.50;99.90;;;;;;5060558;28;25082;-60
2021/09/28 05:54:21;;;;;;;15.40;4.53;;;11.40;99.90;;;;;;5062866;28;25086;-60
2021/09/28 05:56:48;;;;;;;13.55;4.20;;;11.40;99.90;;;;;;5062159;28;25109;-59
2021/09/28 05:59:13;;;;;;;13.43;3.92;;;11.40;99.90;;;;;;5059700;28;25080;-61
2021/09/28 06:01:39;;;;;;;18.77;5.03;;;11.40;99.90;;;;;;5064006;28;25071;-61
2021/09/28 06:04:05;;;;;;;12.93;4.57;;;11.40;99.90;;;;;;5060442;28;25058;-60
2021/09/28 06:06:31;;;;;;;14.77;4.50;;;11.40;99.90;;;;;;5067257;28;25124;-60
2021/09/28 06:08:57;;;;;;;16.60;4.60;;;11.40;99.90;;;;;;5067157;28;25113;-61
2021/09/28 06:11:23;;;;;;;21.02;4.47;;;11.40;99.90;;;;;;5070143;28;25060;-60
2021/09/28 06:13:49;;;;;;;12.80;4.13;;;11.30;99.90;;;;;;5067352;28;25084;-60
2021/09/28 06:16:15;;;;;;;17.52;4.10;;;11.40;99.90;;;;;;5065895;28;25064;-59
2021/09/28 06:18:40;;;;;;;18.02;4.90;;;11.40;99.90;;;;;;5059991;28;25066;-61
2021/09/28 06:21:06;;;;;;;16.85;3.95;;;11.40;99.90;;;;;;5065453;28;25135;-60
2021/09/28 06:23:31;;;;;;;16.83;4.45;;;11.40;99.90;;;;;;5064744;28;25056;-61
2021/09/28 06:25:57;;;;;;;17.67;4.55;;;11.50;99.90;;;;;;5067592;28;25124;-60
2021/09/28 06:28:22;;;;;;;15.82;4.43;;;11.40;99.90;;;;;;5067361;28;25164;-59
2021/09/28 06:30:48;;;;;;;16.67;4.28;;;11.50;99.90;;;;;;5070187;28;25133;-59
2021/09/28 06:33:13;;;;;;;12.52;4.68;;;11.50;99.90;;;;;;5065718;28;25066;-60
2021/09/28 06:35:39;;;;;;;18.02;4.80;;;11.60;99.90;;;;;;5069983;28;25049;-60
2021/09/28 06:38:06;;;;;;;14.70;4.65;;;11.50;99.90;;;;;;5066526;28;25121;-60
2021/09/28 06:40:33;;;;;;;15.05;4.47;;;11.50;99.90;;;;;;5063676;28;25070;-61
2021/09/28 06:42:59;;;;;;;27.75;5.13;;;11.60;99.90;;;;;;5067908;28;25065;-61
2021/09/28 06:45:24;;;;;;;16.90;5.65;;;11.50;99.90;;;;;;5067504;28;25077;-59
2021/09/28 06:47:50;;;;;;;13.95;4.88;;;11.60;99.90;;;;;;5066632;28;25075;-60
2021/09/28 06:50:15;;;;;;;20.50;4.47;;;11.60;99.90;;;;;;5062809;28;25125;-60
2021/09/28 06:52:43;;;;;;;20.50;4.55;;;11.70;99.90;;;;;;5064380;28;25068;-61
2021/09/28 06:55:09;;;;;;;14.40;5.15;;;11.70;99.90;;;;;;5061988;28;25078;-60
2021/09/28 06:57:35;;;;;;;17.02;4.22;;;11.70;99.90;;;;;;5061853;28;25123;-60
2021/09/28 07:00:01;;;;;;;13.02;4.05;;;11.80;99.90;;;;;;5067676;28;25136;-60
2021/09/28 07:02:27;;;;;;;16.13;4.88;;;11.90;99.90;;;;;;5068451;28;25130;-59
2021/09/28 07:04:53;;;;;;;22.42;5.55;;;12.00;99.90;;;;;;5070110;28;25081;-60
2021/09/28 07:07:19;;;;;;;17.90;5.25;;;12.10;99.90;;;;;;5072097;28;25096;-61
2021/09/28 07:09:44;;;;;;;10.55;4.18;;;12.00;99.90;;;;;;5069165;28;25075;-60
2021/09/28 07:12:10;;;;;;;18.27;5.03;;;12.10;99.90;;;;;;5059524;28;25047;-60
2021/09/28 07:14:35;;;;;;;17.83;5.20;;;12.10;99.90;;;;;;5062401;28;25123;-60
2021/09/28 07:17:01;;;;;;;16.27;4.95;;;12.10;99.90;;;;;;5065087;28;25109;-59
2021/09/28 07:19:26;;;;;;;16.05;4.68;;;12.20;99.90;;;;;;5066820;28;25084;-60
2021/09/28 07:21:52;;;;;;;11.85;4.82;;;12.30;99.90;;;;;;5063763;28;25075;-61
2021/09/28 07:24:18;;;;;;;15.77;4.43;;;12.30;99.90;;;;;;5064250;28;25094;-60
2021/09/28 07:26:43;;;;;;;14.63;4.68;;;12.30;99.90;;;;;;5064655;28;25142;-60
2021/09/28 07:29:09;;;;;;;15.45;4.85;;;12.40;99.90;;;;;;5065260;28;25165;-60
2021/09/28 07:31:34;;;;;;;16.58;4.95;;;12.40;99.90;;;;;;5064260;28;25126;-60
2021/09/28 07:34:00;;;;;;;20.15;5.15;;;12.50;99.90;;;;;;5065425;28;25124;-60
2021/09/28 07:36:25;;;;;;;19.25;4.78;;;12.50;99.90;;;;;;5066729;28;25081;-60
2021/09/28 07:38:51;;;;;;;17.90;5.65;;;12.60;99.90;;;;;;5065344;28;25081;-61
2021/09/28 07:41:17;;;;;;;19.08;4.88;;;12.60;99.90;;;;;;5066471;28;25053;-59
2021/09/28 07:43:44;;;;;;;16.88;5.03;;;12.70;99.90;;;;;;5066567;28;25106;-60
2021/09/28 07:46:09;;;;;;;15.43;4.93;;;12.70;99.90;;;;;;5067984;28;25068;-60
2021/09/28 07:48:35;;;;;;;13.52;4.65;;;12.90;99.90;;;;;;5049062;28;25076;-60
2021/09/28 07:51:01;;;;;;;12.40;4.15;;;13.00;99.90;;;;;;5064873;28;25057;-60
2021/09/28 07:53:27;;;;;;;21.17;4.72;;;13.00;99.90;;;;;;5067120;28;25134;-60
2021/09/28 07:55:53;;;;;;;13.07;4.93;;;13.10;99.90;;;;;;5058597;28;25130;-60
2021/09/28 07:58:18;;;;;;;12.52;5.03;;;13.10;99.90;;;;;;5062238;28;25080;-59
2021/09/28 08:00:44;;;;;;;23.50;4.65;;;13.30;99.90;;;;;;5067660;28;25061;-60
2021/09/28 08:03:10;;;;;;;13.30;4.10;;;13.50;99.90;;;;;;5066107;28;25060;-61
2021/09/28 08:05:36;;;;;;;9.98;4.15;;;13.50;99.90;;;;;;5066036;28;25053;-59
2021/09/28 08:08:01;;;;;;;16.73;5.28;;;13.60;99.90;;;;;;5071454;28;25100;-60
2021/09/28 08:10:27;;;;;;;20.00;4.75;;;13.70;99.90;;;;;;5073969;28;25083;-59
2021/09/28 08:12:53;;;;;;;20.98;4.60;;;13.80;99.90;;;;;;5076410;28;25054;-59
2021/09/28 08:15:18;;;;;;;16.50;3.83;;;14.00;99.90;;;;;;5067758;28;25074;-61
2021/09/28 08:17:44;;;;;;;17.08;4.47;;;14.30;99.90;;;;;;5057335;28;25110;-59
2021/09/28 08:20:11;;;;;;;15.90;4.60;;;14.60;99.90;;;;;;5062915;28;25129;-60
2021/09/28 08:22:39;;;;;;;14.57;4.22;;;14.60;99.90;;;;;;5066235;28;25142;-60
2021/09/28 08:25:11;;;;;;;15.70;4.50;;;15.00;99.90;;;;;;5065399;28;25083;-60
2021/09/28 08:30:22;;;;;;;17.70;4.13;;;15.10;99.90;;;;;;5066698;28;25086;-59
2021/09/28 08:32:47;;;;;;;15.05;3.45;;;15.10;99.90;;;;;;5066956;28;25136;-59
2021/09/28 08:35:13;;;;;;;16.35;4.43;;;15.30;99.90;;;;;;5067097;28;25159;-59
2021/09/28 08:37:39;;;;;;;16.73;4.55;;;15.50;99.90;;;;;;5063922;28;25101;-61
2021/09/28 08:40:06;;;;;;;17.75;4.45;;;15.60;99.90;;;;;;5064481;28;25067;-61
2021/09/28 08:42:31;;;;;;;15.48;4.10;;;15.70;99.90;;;;;;5064466;28;25081;-61
2021/09/28 08:44:57;;;;;;;21.90;4.63;;;15.90;99.90;;;;;;5066356;28;25071;-60
2021/09/28 08:47:43;;;;;;;16.60;4.50;;;16.10;99.90;;;;;;5068755;28;25086;-60
2021/09/28 08:50:18;;;;;;;13.90;4.60;;;16.10;99.90;;;;;;5043998;28;25069;-59
2021/09/28 08:52:45;;;;;;;15.27;3.95;;;16.10;99.90;;;;;;5063494;28;25072;-59
2021/09/28 08:55:11;;;;;;;12.85;3.70;;;16.30;99.90;;;;;;5064853;28;25062;-60
2021/09/28 08:57:38;;;;;;;16.15;4.20;;;16.40;99.90;;;;;;5065039;28;25148;-59
2021/09/28 09:00:20;;;;;;;20.65;4.82;;;16.50;99.90;;;;;;5047690;28;25145;-60
2021/09/28 09:02:47;;;;;;;16.02;5.32;;;16.70;99.90;;;;;;5061618;28;25077;-60
2021/09/28 09:05:14;;;;;;;15.38;3.95;;;16.80;99.90;;;;;;5041913;28;25131;-60
2021/09/28 09:07:56;;;;;;;18.65;4.85;;;16.60;99.90;;;;;;5066431;28;25074;-60
2021/09/28 09:10:27;;;;;;;15.30;4.32;;;16.50;99.90;;;;;;5070864;28;25104;-60
2021/09/28 09:12:53;;;;;;;15.00;4.90;;;16.40;99.90;;;;;;5069780;28;25122;-60
2021/09/28 09:15:29;;;;;;;14.50;4.03;;;16.40;99.90;;;;;;5063447;28;25055;-62
2021/09/28 09:18:04;;;;;;;19.70;4.47;;;16.30;99.90;;;;;;5065654;28;25088;-60
2021/09/28 09:20:33;;;;;;;16.85;4.60;;;16.20;99.90;;;;;;5061430;28;25078;-61
2021/09/28 09:23:21;;;;;;;12.45;4.43;;;16.00;99.90;;;;;;5062374;28;25106;-60
2021/09/28 09:25:57;;;;;;;17.42;4.15;;;16.00;99.90;;;;;;5068172;28;25084;-59
2021/09/28 09:28:33;;;;;;;16.80;4.13;;;15.90;99.90;;;;;;5062424;28;25132;-60
2021/09/28 09:31:09;;;;;;;11.23;4.18;;;16.00;99.90;;;;;;5059372;28;25068;-61
2021/09/28 09:33:34;;;;;;;20.90;4.70;;;16.00;99.90;;;;;;5061033;28;25142;-60
2021/09/28 09:36:00;;;;;;;21.15;5.22;;;16.00;99.90;;;;;;5067885;28;25149;-60
2021/09/28 09:38:27;;;;;;;14.93;3.80;;;16.10;99.90;;;;;;5047654;28;25048;-60
2021/09/28 09:40:53;;;;;;;28.05;5.38;;;16.30;99.90;;;;;;5064354;28;25065;-60
2021/09/28 09:43:30;;;;;;;14.32;4.45;;;16.40;99.90;;;;;;5064553;28;25094;-60
2021/09/28 09:46:07;;;;;;;21.90;3.90;;;16.50;99.90;;;;;;5064727;28;25181;-59
2021/09/28 09:48:34;;;;;;;12.32;3.72;;;16.30;99.90;;;;;;5067204;28;25170;-60
2021/09/28 09:51:04;;;;;;;16.75;3.92;;;16.40;99.90;;;;;;5044497;28;25168;-60
2021/09/28 09:53:30;;;;;;;20.02;4.57;;;16.60;99.90;;;;;;5070935;28;25047;-59
2021/09/28 09:55:55;;;;;;;16.23;3.70;;;16.80;99.90;;;;;;5067483;28;25063;-61
2021/09/28 09:58:21;;;;;;;21.20;4.70;;;16.80;99.90;;;;;;5071106;28;25081;-58
2021/09/28 10:00:49;;;;;;;15.57;4.28;;;16.70;99.90;;;;;;5065329;28;25045;-61
2021/09/28 10:03:15;;;;;;;14.35;3.47;;;16.80;99.90;;;;;;5066778;28;25076;-60
2021/09/28 10:05:41;;;;;;;20.75;4.50;;;16.70;99.90;;;;;;5064584;28;25128;-60
2021/09/28 10:08:11;;;;;;;13.45;3.72;;;16.90;99.90;;;;;;5069623;28;25069;-60
2021/09/28 10:10:38;;;;;;;15.18;3.47;;;16.90;99.90;;;;;;5066620;28;25057;-60
2021/09/28 10:13:05;;;;;;;15.98;4.10;;;17.00;99.90;;;;;;5061580;28;25077;-60
2021/09/28 10:15:31;;;;;;;15.88;4.50;;;17.00;99.90;;;;;;5067548;28;25086;-60
2021/09/28 10:17:57;;;;;;;24.60;4.03;;;17.10;99.90;;;;;;5064421;28;25098;-61
2021/09/28 10:20:22;;;;;;;18.95;3.45;;;17.20;99.90;;;;;;5070166;28;25114;-60
2021/09/28 10:22:52;;;;;;;14.02;3.00;;;17.40;99.90;;;;;;5074556;28;25058;-60
2021/09/28 10:25:34;;;;;;;15.30;3.45;;;17.50;99.90;;;;;;5069380;28;25110;-61
2021/09/28 10:28:03;;;;;;;23.33;3.77;;;17.60;99.90;;;;;;5068946;28;25079;-61
2021/09/28 10:30:31;;;;;;;14.27;3.72;;;17.60;99.90;;;;;;5067730;28;25087;-61
2021/09/28 10:33:18;;;;;;;14.23;3.28;;;17.40;99.90;;;;;;5064212;28;25145;-59
2021/09/28 10:35:59;;;;;;;15.95;3.47;;;17.30;99.90;;;;;;5055259;22;25127;-67
2021/09/28 10:38:46;;;;;;;15.15;3.22;;;17.50;99.90;;;;;;5029915;28;25126;-66
2021/09/28 10:41:42;;;;;;;20.73;3.42;;;17.70;99.90;;;;;;5029484;28;25081;-66
2021/09/28 10:44:26;;;;;;;14.70;3.70;;;17.80;99.90;;;;;;5031549;28;25052;-67
2021/09/28 10:46:53;;;;;;;17.23;4.07;;;17.60;99.90;;;;;;5049978;28;25135;-69
2021/09/28 10:49:26;;;;;;;16.70;3.60;;;17.70;99.90;;;;;;5049145;28;25090;-68
2021/09/28 10:52:20;;;;;;;17.52;3.55;;;17.80;99.90;;;;;;5048063;28;25063;-65
2021/09/28 10:55:09;;;;;;;13.50;3.28;;;17.90;99.90;;;;;;5060133;28;25055;-67
2021/09/28 10:58:12;;;;;;;14.52;3.33;;;18.30;99.90;;;;;;5047625;28;25068;-66
2021/09/28 11:00:40;;;;;;;20.45;3.45;;;18.50;99.90;;;;;;5046706;28;25062;-67
2021/09/28 11:03:08;;;;;;;16.40;3.35;;;18.90;99.90;;;;;;5048900;28;25124;-66
2021/09/28 11:05:37;;;;;;;13.25;3.03;;;19.10;99.90;;;;;;5029389;28;25080;-67
2021/09/28 11:08:09;;;;;;;14.52;3.15;;;19.40;99.90;;;;;;5047626;28;25155;-67
2021/09/28 11:10:36;;;;;;;17.10;3.72;;;19.60;99.90;;;;;;5048280;28;25135;-67
2021/09/28 11:13:20;;;;;;;20.17;3.55;;;19.40;99.90;;;;;;5047559;28;25058;-68
2021/09/28 11:15:55;;;;;;;18.88;3.03;;;19.30;99.90;;;;;;5047050;28;25071;-67
2021/09/28 11:18:21;;;;;;;15.20;2.80;;;19.20;99.90;;;;;;5051861;28;25111;-67
2021/09/28 11:20:46;;;;;;;15.50;3.55;;;19.30;99.90;;;;;;5050255;28;25149;-67
2021/09/28 11:23:13;;;;;;;18.02;3.65;;;19.30;99.90;;;;;;5046590;28;25131;-66
2021/09/28 11:25:46;;;;;;;13.07;2.90;;;19.10;99.90;;;;;;5053717;28;25060;-66
2021/09/28 11:28:13;;;;;;;10.85;2.50;;;19.10;99.90;;;;;;5047371;28;25132;-65
2021/09/28 11:30:50;;;;;;;14.50;3.40;;;19.30;99.90;;;;;;5047890;28;25064;-66
2021/09/28 11:33:16;;;;;;;11.52;3.50;;;19.60;99.90;;;;;;5048676;28;25092;-66
2021/09/28 11:35:55;;;;;;;11.38;2.88;;;19.90;99.90;;;;;;5029125;28;25105;-66
2021/09/28 11:38:35;;;;;;;8.25;2.70;;;20.20;99.90;;;;;;5048238;28;25077;-66
2021/09/28 11:41:08;;;;;;;13.23;2.60;;;20.70;99.90;;;;;;5044996;28;25080;-68
2021/09/28 11:43:35;;;;;;;11.02;2.72;;;20.80;99.90;;;;;;5060796;28;25064;-68
2021/09/28 11:46:08;;;;;;;12.32;2.60;;;20.90;99.90;;;;;;5047032;28;25118;-67
2021/09/28 11:48:39;;;;;;;8.30;3.03;;;20.70;99.90;;;;;;5036133;28;25078;-64
2021/09/28 11:51:11;;;;;;;10.40;2.45;;;20.60;99.90;;;;;;5047427;28;24828;-67
2021/09/28 11:53:38;;;;;;;11.45;3.65;;;20.20;99.90;;;;;;5047341;28;25064;-67
2021/09/28 11:56:05;;;;;;;12.65;3.30;;;20.30;99.90;;;;;;5047757;28;25052;-66
2021/09/28 11:58:34;;;;;;;11.40;2.88;;;20.70;99.90;;;;;;5047791;28;25059;-67
2021/09/28 12:01:00;;;;;;;16.50;2.95;;;20.60;99.90;;;;;;5047662;28;25062;-67
2021/09/28 12:03:26;;;;;;;13.98;3.33;;;20.20;99.90;;;;;;5047313;28;25070;-66
2021/09/28 12:08:24;;;;;;;15.55;3.35;;;21.10;99.90;;;;;;5046829;28;25073;-68
2021/09/28 12:10:51;;;;;;;13.07;2.58;;;21.40;99.90;;;;;;5026522;28;25118;-68
2021/09/28 12:13:22;;;;;;;9.05;2.42;;;21.80;99.90;;;;;;5044487;28;25164;-67
2021/09/28 12:16:04;;;;;;;14.38;2.65;;;22.10;97.80;;;;;;5046570;28;25111;-66
2021/09/28 12:18:30;;;;;;;10.55;3.25;;;21.90;98.70;;;;;;5041113;28;25057;-67
2021/09/28 12:21:12;;;;;;;11.30;3.08;;;21.80;98.20;;;;;;5031410;28;25059;-67
2021/09/28 12:23:39;;;;;;;13.73;2.58;;;21.70;99.60;;;;;;5046349;28;25108;-67
2021/09/28 12:26:19;;;;;;;13.15;3.42;;;21.40;99.90;;;;;;5051150;28;25076;-66
2021/09/28 12:28:45;;;;;;;10.63;2.15;;;21.50;99.00;;;;;;5044989;28;25061;-68
2021/09/28 12:31:10;;;;;;;15.50;2.65;;;21.60;99.70;;;;;;5057364;28;25076;-67
2021/09/28 12:33:38;;;;;;;12.30;3.35;;;21.90;99.10;;;;;;5053069;28;25133;-66
2021/09/28 12:36:04;;;;;;;16.13;3.22;;;22.20;98.50;;;;;;5051744;28;25063;-68
2021/09/28 12:38:29;;;;;;;10.95;2.60;;;22.10;98.70;;;;;;5060077;28;25103;-67
2021/09/28 12:41:07;;;;;;;8.45;2.00;;;21.70;97.70;;;;;;5056603;28;25046;-67
2021/09/28 12:43:34;;;;;;;11.63;2.78;;;20.70;99.20;;;;;;5042428;28;25076;-66
2021/09/28 12:46:04;;;;;;;15.95;2.88;;;20.60;99.90;;;;;;5052349;28;25075;-67